Time;durP1;ratioP1;P1;durP2;ratioP2;P2;SDS_P1;SDS_P2;PMS_P1;PMS_P2;Temp;Humidity;BMP_temperature;BMP_pressure;BME280_temperature;BME280_humidity;BME280_pressure;Samples;Min_cycle;Max_cycle;Signal;HPM_P1;HPM_P2
2021/01/31 00:01:49;;;;;;;12.70;5.88;;;-1.30;99.90;;;;;;4877759;29;20104;-69
2021/01/31 00:04:16;;;;;;;12.40;6.32;;;-1.30;99.90;;;;;;4877846;29;20534;-69
2021/01/31 00:06:42;;;;;;;14.32;6.03;;;-1.30;99.90;;;;;;4877843;29;20061;-69
2021/01/31 00:09:11;;;;;;;15.95;5.78;;;-1.30;99.90;;;;;;4876963;29;20871;-69
2021/01/31 00:11:37;;;;;;;10.77;5.90;;;-1.30;99.90;;;;;;4877253;29;20084;-69
2021/01/31 00:14:03;;;;;;;10.88;5.32;;;-1.30;99.90;;;;;;4876894;29;20453;-69
2021/01/31 00:16:30;;;;;;;13.95;6.05;;;-1.30;99.90;;;;;;4874218;29;20049;-68
2021/01/31 00:18:56;;;;;;;13.27;6.32;;;-1.40;99.90;;;;;;4876821;29;20057;-69
2021/01/31 00:21:23;;;;;;;15.40;6.05;;;-1.40;99.90;;;;;;4877381;29;20061;-69
2021/01/31 00:23:49;;;;;;;16.83;7.28;;;-1.40;99.90;;;;;;4872109;29;20044;-69
2021/01/31 00:26:19;;;;;;;13.90;5.85;;;-1.40;99.90;;;;;;4871147;29;20053;-69
2021/01/31 00:28:46;;;;;;;11.82;5.63;;;-1.50;99.90;;;;;;4876731;29;20458;-69
2021/01/31 00:31:13;;;;;;;13.93;6.85;;;-1.50;99.90;;;;;;4876490;29;20053;-69
2021/01/31 00:33:39;;;;;;;14.75;6.35;;;-1.50;99.90;;;;;;4877050;29;20124;-69
2021/01/31 00:36:07;;;;;;;13.63;6.40;;;-1.50;99.90;;;;;;4877671;29;20370;-69
2021/01/31 00:38:34;;;;;;;15.63;5.63;;;-1.50;99.90;;;;;;4877160;29;20053;-68
2021/01/31 00:41:00;;;;;;;12.07;5.97;;;-1.50;99.90;;;;;;4875809;29;20077;-69
2021/01/31 00:43:27;;;;;;;14.20;5.72;;;-1.50;99.90;;;;;;4877041;29;20053;-69
2021/01/31 00:45:56;;;;;;;11.35;4.65;;;-1.60;99.90;;;;;;4877220;29;20449;-69
2021/01/31 00:48:22;;;;;;;13.60;5.55;;;-1.60;99.90;;;;;;4876924;29;20057;-69
2021/01/31 00:50:49;;;;;;;12.85;6.25;;;-1.60;99.90;;;;;;4876181;29;20061;-69
2021/01/31 00:53:16;;;;;;;12.63;5.65;;;-1.60;99.90;;;;;;4876898;29;20136;-69
2021/01/31 00:55:43;;;;;;;12.35;5.85;;;-1.60;99.90;;;;;;4876617;29;20059;-69
2021/01/31 00:58:10;;;;;;;10.68;5.00;;;-1.60;99.90;;;;;;4876839;29;20045;-69
2021/01/31 01:00:39;;;;;;;11.70;5.20;;;-1.70;99.90;;;;;;4867018;29;20061;-69
2021/01/31 01:03:08;;;;;;;11.32;5.32;;;-1.70;99.90;;;;;;4878174;29;20377;-69
2021/01/31 01:05:35;;;;;;;9.35;4.55;;;-1.70;99.90;;;;;;4877152;29;20104;-69
2021/01/31 01:08:02;;;;;;;11.07;4.40;;;-1.70;99.90;;;;;;4876629;29;20136;-69
2021/01/31 01:10:32;;;;;;;9.23;5.68;;;-1.70;99.90;;;;;;4875381;29;20091;-69
2021/01/31 01:13:00;;;;;;;12.02;5.32;;;-1.70;99.90;;;;;;4872208;29;20146;-69
2021/01/31 01:15:28;;;;;;;14.55;6.20;;;-1.70;99.90;;;;;;4870569;29;20060;-69
2021/01/31 01:17:59;;;;;;;9.57;4.88;;;-1.70;99.90;;;;;;4870482;29;20076;-69
2021/01/31 01:20:26;;;;;;;14.50;5.50;;;-1.80;99.90;;;;;;4874017;29;20057;-69
2021/01/31 01:22:56;;;;;;;12.00;5.85;;;-1.80;99.90;;;;;;4876971;29;20393;-69
2021/01/31 01:25:24;;;;;;;10.52;4.97;;;-1.80;99.90;;;;;;4876053;29;20063;-69
2021/01/31 01:27:51;;;;;;;10.63;5.05;;;-1.80;99.90;;;;;;4876627;29;20091;-69
2021/01/31 01:30:21;;;;;;;7.18;4.18;;;-1.80;99.90;;;;;;4872847;29;20438;-69
2021/01/31 01:32:49;;;;;;;11.23;4.72;;;-1.80;99.90;;;;;;4876741;29;20517;-69
2021/01/31 01:35:17;;;;;;;13.82;5.22;;;-1.90;99.90;;;;;;4876464;29;20053;-69
2021/01/31 01:37:44;;;;;;;12.23;5.05;;;-1.90;99.90;;;;;;4876357;29;20049;-69
2021/01/31 01:40:17;;;;;;;10.30;4.80;;;-1.90;99.90;;;;;;4869437;29;20481;-69
2021/01/31 01:42:43;;;;;;;16.88;5.80;;;-1.90;99.90;;;;;;4876955;29;20579;-69
2021/01/31 01:45:11;;;;;;;11.55;6.18;;;-2.00;99.90;;;;;;4875925;29;20068;-69
2021/01/31 01:47:38;;;;;;;12.30;5.63;;;-2.00;99.90;;;;;;4876446;29;20057;-69
2021/01/31 01:50:17;;;;;;;13.63;5.65;;;-2.00;99.90;;;;;;4875319;29;20061;-69
2021/01/31 01:52:44;;;;;;;14.20;4.97;;;-2.00;99.90;;;;;;4873128;29;20049;-69
2021/01/31 01:55:16;;;;;;;13.52;5.95;;;-2.00;99.90;;;;;;4879764;29;20565;-69
2021/01/31 01:57:44;;;;;;;16.02;7.53;;;-2.00;99.90;;;;;;4880003;29;20057;-69
2021/01/31 02:00:11;;;;;;;15.10;6.28;;;-2.10;99.90;;;;;;4879061;29;20061;-69
2021/01/31 02:02:55;;;;;;;11.20;5.40;;;-2.10;99.90;;;;;;4880540;29;20053;-69
2021/01/31 02:05:22;;;;;;;18.77;7.25;;;-2.10;99.90;;;;;;4879740;29;20101;-70
2021/01/31 02:07:49;;;;;;;13.00;6.30;;;-2.00;99.90;;;;;;4879792;29;20056;-69
2021/01/31 02:10:18;;;;;;;14.68;7.10;;;-2.00;99.90;;;;;;4879419;29;20065;-70
2021/01/31 02:12:45;;;;;;;14.45;7.30;;;-2.00;99.90;;;;;;4880384;29;20056;-70
2021/01/31 02:15:15;;;;;;;12.25;5.63;;;-2.00;99.90;;;;;;4879495;29;20406;-70
2021/01/31 02:17:55;;;;;;;15.35;6.03;;;-1.90;99.90;;;;;;4879621;29;20049;-70
2021/01/31 02:21:10;;;;;;;19.88;7.40;;;-2.00;99.90;;;;;;4878979;29;20494;-70
2021/01/31 02:23:52;;;;;;;15.73;6.47;;;-1.90;99.90;;;;;;4879994;29;20132;-70
2021/01/31 02:26:35;;;;;;;17.23;7.13;;;-1.90;99.90;;;;;;4878913;29;20450;-70
2021/01/31 02:29:42;;;;;;;12.48;5.28;;;-1.90;99.90;;;;;;4879347;29;20045;-70
2021/01/31 02:32:25;;;;;;;13.20;6.53;;;-2.00;99.90;;;;;;4863294;29;20057;-71
2021/01/31 02:35:01;;;;;;;14.20;5.90;;;-2.00;99.90;;;;;;4879513;29;20647;-71
2021/01/31 02:37:37;;;;;;;12.95;5.80;;;-2.00;99.90;;;;;;4875206;29;20112;-71
2021/01/31 02:40:10;;;;;;;15.00;6.93;;;-2.00;99.90;;;;;;4878476;29;20156;-71
2021/01/31 02:43:04;;;;;;;12.18;5.80;;;-2.00;99.90;;;;;;4879341;29;20096;-71
2021/01/31 02:45:37;;;;;;;15.30;6.68;;;-2.00;99.90;;;;;;4873817;29;20049;-71
2021/01/31 02:48:23;;;;;;;13.10;5.97;;;-2.00;99.90;;;;;;4879423;29;20113;-71
2021/01/31 02:50:53;;;;;;;12.85;5.18;;;-2.00;99.90;;;;;;4875228;29;20065;-71
2021/01/31 02:53:37;;;;;;;9.20;4.47;;;-2.00;99.90;;;;;;4877084;29;20057;-72
2021/01/31 02:56:14;;;;;;;10.88;4.97;;;-2.00;99.90;;;;;;4853228;29;20062;-72
2021/01/31 02:58:47;;;;;;;11.55;5.45;;;-2.10;99.90;;;;;;4849267;29;20057;-72
2021/01/31 03:01:21;;;;;;;11.00;5.60;;;-2.10;99.90;;;;;;4860149;29;20129;-72
2021/01/31 03:03:54;;;;;;;11.82;5.05;;;-2.10;99.90;;;;;;4857190;29;20418;-71
2021/01/31 03:06:30;;;;;;;9.75;4.22;;;-2.10;99.90;;;;;;4846643;29;20141;-72
2021/01/31 03:09:16;;;;;;;10.23;4.65;;;-2.10;99.90;;;;;;4852638;29;20539;-72
2021/01/31 03:11:54;;;;;;;8.82;4.13;;;-2.10;99.90;;;;;;4844365;29;20543;-72
2021/01/31 03:14:28;;;;;;;14.13;6.97;;;-2.10;99.90;;;;;;4848977;29;20193;-72
2021/01/31 03:17:11;;;;;;;11.05;4.97;;;-2.10;99.90;;;;;;4860129;29;20082;-72
2021/01/31 03:19:44;;;;;;;14.90;6.75;;;-2.10;99.90;;;;;;4859605;29;20089;-72
2021/01/31 03:22:19;;;;;;;14.65;6.30;;;-2.10;99.90;;;;;;4853520;29;20498;-72
2021/01/31 03:25:10;;;;;;;12.02;5.60;;;-2.10;99.90;;;;;;4838729;29;20148;-72
2021/01/31 03:27:39;;;;;;;10.68;5.78;;;-2.10;99.90;;;;;;4857225;29;20617;-73
2021/01/31 03:30:10;;;;;;;11.20;5.20;;;-2.10;99.90;;;;;;4858015;29;20113;-72
2021/01/31 03:32:51;;;;;;;17.13;7.00;;;-2.20;99.90;;;;;;4856021;29;20053;-72
2021/01/31 03:35:23;;;;;;;15.05;6.07;;;-2.20;99.90;;;;;;4855296;29;20702;-73
2021/01/31 03:38:01;;;;;;;14.43;6.35;;;-2.20;99.90;;;;;;4857313;29;20462;-73
2021/01/31 03:40:29;;;;;;;13.45;6.47;;;-2.20;99.90;;;;;;4846110;29;20427;-73
2021/01/31 03:42:56;;;;;;;12.20;5.15;;;-2.20;99.90;;;;;;4857166;29;20130;-73
2021/01/31 03:45:27;;;;;;;12.57;5.85;;;-2.20;99.90;;;;;;4850177;29;20057;-73
2021/01/31 03:48:03;;;;;;;12.00;5.80;;;-2.20;99.90;;;;;;4859921;29;20057;-73
2021/01/31 03:50:30;;;;;;;11.57;5.63;;;-2.20;99.90;;;;;;4860120;29;20438;-73
2021/01/31 03:52:58;;;;;;;16.05;6.45;;;-2.20;99.90;;;;;;4854366;29;20045;-73
2021/01/31 03:55:25;;;;;;;9.65;5.25;;;-2.20;99.90;;;;;;4871141;29;20113;-73
2021/01/31 03:58:01;;;;;;;13.30;5.68;;;-2.30;99.90;;;;;;4873651;29;20509;-73
2021/01/31 04:00:36;;;;;;;12.32;6.43;;;-2.30;99.90;;;;;;4875886;29;20128;-73
2021/01/31 04:03:13;;;;;;;10.68;5.15;;;-2.30;99.90;;;;;;4873274;29;20386;-73
2021/01/31 04:06:01;;;;;;;12.07;5.50;;;-2.30;99.90;;;;;;4873503;29;20140;-73
2021/01/31 04:08:30;;;;;;;11.07;5.32;;;-2.30;99.90;;;;;;4878149;29;20057;-73
2021/01/31 04:10:57;;;;;;;14.52;6.88;;;-2.40;99.90;;;;;;4877840;29;20068;-73
2021/01/31 04:13:25;;;;;;;15.20;6.20;;;-2.40;99.90;;;;;;4877284;29;20053;-73
2021/01/31 04:15:55;;;;;;;13.18;6.38;;;-2.40;99.90;;;;;;4868899;29;20065;-73
2021/01/31 04:18:23;;;;;;;12.07;5.78;;;-2.40;99.90;;;;;;4890433;29;20049;-73
2021/01/31 04:20:51;;;;;;;14.40;5.65;;;-2.40;99.90;;;;;;4877278;29;20057;-73
2021/01/31 04:23:19;;;;;;;10.60;5.03;;;-2.50;99.90;;;;;;4876104;29;20131;-73
2021/01/31 04:25:46;;;;;;;11.60;4.55;;;-2.50;99.90;;;;;;4874844;29;20061;-74
2021/01/31 07:07:04;;;;;;;12.25;5.22;;;-3.20;99.90;;;;;;4901089;29;20050;-77
2021/01/31 07:09:51;;;;;;;17.17;6.55;;;-3.20;99.90;;;;;;4873069;29;20052;-78
2021/01/31 07:13:01;;;;;;;13.15;5.03;;;-3.20;99.90;;;;;;4876275;29;20055;-78
2021/01/31 07:15:39;;;;;;;16.00;8.00;;;-3.20;99.90;;;;;;4867825;29;20370;-77
2021/01/31 07:18:10;;;;;;;19.52;8.52;;;-3.20;99.90;;;;;;4872006;29;20054;-78
2021/01/31 07:20:48;;;;;;;12.75;6.55;;;-3.20;99.90;;;;;;4889016;29;20064;-78
2021/01/31 07:23:32;;;;;;;11.68;5.78;;;-3.20;99.90;;;;;;4879216;29;20132;-78
2021/01/31 07:26:41;;;;;;;15.48;5.78;;;-3.20;99.90;;;;;;4894476;29;20132;-77
2021/01/31 07:29:15;;;;;;;12.98;6.10;;;-3.20;99.90;;;;;;4881840;29;20076;-78
2021/01/31 07:31:49;;;;;;;16.70;7.55;;;-3.10;99.90;;;;;;4877565;29;20057;-77
2021/01/31 07:34:39;;;;;;;19.10;7.32;;;-3.10;99.90;;;;;;4886996;29;20401;-78
2021/01/31 07:37:16;;;;;;;15.98;6.60;;;-3.10;99.90;;;;;;4883269;29;20481;-78
2021/01/31 07:40:12;;;;;;;13.65;6.05;;;-3.10;99.90;;;;;;4885035;29;20049;-77
2021/01/31 07:42:42;;;;;;;14.40;5.65;;;-3.10;99.90;;;;;;4882401;29;20068;-77
2021/01/31 07:45:20;;;;;;;14.63;6.95;;;-3.00;99.90;;;;;;4878404;29;20053;-78
2021/01/31 07:47:47;;;;;;;14.43;6.85;;;-3.00;99.90;;;;;;4895853;29;20059;-77
2021/01/31 07:50:15;;;;;;;16.38;7.07;;;-2.90;99.90;;;;;;4893799;29;20048;-77
2021/01/31 07:52:52;;;;;;;15.18;5.03;;;-2.90;99.90;;;;;;4878415;29;20048;-78
2021/01/31 07:55:28;;;;;;;8.57;4.72;;;-2.80;99.90;;;;;;4889486;29;20413;-78
2021/01/31 07:58:20;;;;;;;10.73;5.20;;;-2.80;99.90;;;;;;4888452;29;20644;-77
2021/01/31 08:00:52;;;;;;;11.13;5.45;;;-2.70;99.90;;;;;;4894203;29;20056;-77
2021/01/31 08:03:32;;;;;;;10.98;5.97;;;-2.60;99.90;;;;;;4892470;29;20071;-77
2021/01/31 08:06:29;;;;;;;11.75;6.13;;;-2.60;99.90;;;;;;4894850;29;20087;-77
2021/01/31 08:08:56;;;;;;;14.85;6.43;;;-2.50;99.90;;;;;;4877530;29;20068;-77
2021/01/31 08:11:27;;;;;;;12.07;4.82;;;-2.40;99.90;;;;;;4874247;29;20135;-78
2021/01/31 08:13:54;;;;;;;11.38;5.32;;;-2.40;99.90;;;;;;4892913;29;20131;-78
2021/01/31 08:16:48;;;;;;;16.85;5.53;;;-2.30;99.90;;;;;;4880415;29;20055;-77
2021/01/31 08:19:17;;;;;;;11.98;5.20;;;-2.30;99.90;;;;;;4880147;29;20068;-78
2021/01/31 08:22:02;;;;;;;11.65;5.50;;;-2.20;99.90;;;;;;4884463;29;20084;-77
2021/01/31 08:25:20;;;;;;;10.15;4.75;;;-2.20;99.90;;;;;;4886848;29;20059;-77
2021/01/31 08:27:49;;;;;;;13.27;5.65;;;-2.10;99.90;;;;;;4836547;29;20204;-77
2021/01/31 08:30:23;;;;;;;;;;;-2.00;99.90;;;;;;4875077;29;20055;-78
2021/01/31 08:32:58;;;;;;;11.30;5.03;;;-2.00;99.90;;;;;;4890201;29;19923;-78
2021/01/31 08:35:38;;;;;;;9.55;4.43;;;-2.00;99.90;;;;;;4892606;29;20488;-78
2021/01/31 08:38:28;;;;;;;13.70;5.15;;;-1.90;99.90;;;;;;4881631;29;20131;-77
2021/01/31 08:41:00;;;;;;;11.68;4.68;;;-1.90;99.90;;;;;;4882689;29;20424;-78
2021/01/31 08:43:28;;;;;;;13.50;6.25;;;-1.80;99.90;;;;;;4892361;29;20061;-78
2021/01/31 08:46:04;;;;;;;14.77;5.75;;;-1.90;99.90;;;;;;4873101;29;20143;-77
2021/01/31 08:48:30;;;;;;;12.18;5.45;;;-1.90;99.90;;;;;;4884782;29;20421;-78
2021/01/31 08:51:15;;;;;;;16.95;6.22;;;-1.90;99.90;;;;;;4889296;29;20079;-77
2021/01/31 08:53:41;;;;;;;10.55;4.63;;;-1.90;99.90;;;;;;4872745;29;20056;-76
2021/01/31 08:56:22;;;;;;;12.50;5.30;;;-1.80;99.90;;;;;;4872011;29;20048;-76
2021/01/31 08:58:49;;;;;;;12.60;5.88;;;-1.70;99.90;;;;;;4887173;29;20048;-76
2021/01/31 09:01:16;;;;;;;11.90;5.30;;;-1.60;99.90;;;;;;4887784;29;20123;-76
2021/01/31 09:03:44;;;;;;;11.82;5.15;;;-1.60;99.90;;;;;;4890798;29;20132;-76
2021/01/31 09:06:11;;;;;;;15.23;6.13;;;-1.50;99.90;;;;;;4892845;29;20048;-75
2021/01/31 09:08:41;;;;;;;13.10;5.85;;;-1.40;99.90;;;;;;4880108;29;20139;-75
2021/01/31 09:11:12;;;;;;;12.70;5.82;;;-1.40;99.90;;;;;;4892088;29;20051;-75
2021/01/31 09:13:38;;;;;;;13.25;5.05;;;-1.30;99.90;;;;;;4872677;29;20148;-76
2021/01/31 09:16:58;;;;;;;11.55;5.22;;;-1.20;99.90;;;;;;4869154;29;20063;-76
2021/01/31 09:19:24;;;;;;;12.73;5.05;;;-1.20;99.90;;;;;;4885826;29;20588;-76
2021/01/31 09:22:29;;;;;;;14.75;6.30;;;-1.10;99.90;;;;;;4871806;29;20057;-76
2021/01/31 09:25:03;;;;;;;10.35;5.18;;;-1.00;99.90;;;;;;4884995;29;20066;-76
2021/01/31 09:31:03;;;;;;;13.27;5.47;;;-0.80;99.90;;;;;;4878584;29;20060;-76
2021/01/31 09:40:43;;;;;;;15.07;6.50;;;-0.20;99.90;;;;;;4800353;29;20049;-76
2021/01/31 09:43:16;;;;;;;14.57;6.60;;;0.00;99.90;;;;;;4882094;29;20580;-76
2021/01/31 09:45:48;;;;;;;16.77;6.80;;;0.10;99.90;;;;;;4881747;29;20507;-75
2021/01/31 09:48:27;;;;;;;15.77;6.40;;;0.30;99.90;;;;;;4865856;29;20056;-76
2021/01/31 09:51:05;;;;;;;;;;;0.50;99.90;;;;;;4882396;29;20049;-75
2021/01/31 09:53:40;;;;;;;17.50;6.35;;;0.60;99.90;;;;;;4881466;29;19927;-76
2021/01/31 09:56:42;;;;;;;14.95;6.82;;;0.80;99.90;;;;;;4879484;29;20048;-75
2021/01/31 09:59:31;;;;;;;14.90;6.50;;;1.00;99.90;;;;;;4867248;29;20575;-75
2021/01/31 10:02:18;;;;;;;15.85;6.95;;;1.30;99.90;;;;;;4880464;29;20143;-74
2021/01/31 10:05:08;;;;;;;17.65;6.68;;;1.30;99.90;;;;;;4866466;29;20231;-74
2021/01/31 10:07:42;;;;;;;17.05;6.85;;;1.30;99.90;;;;;;4878334;29;20101;-74
2021/01/31 10:11:22;;;;;;;16.77;7.22;;;1.20;99.90;;;;;;4881248;29;20061;-74
2021/01/31 10:13:48;;;;;;;13.50;6.32;;;1.20;99.90;;;;;;4825877;29;20069;-75
2021/01/31 10:16:35;;;;;;;14.27;6.28;;;1.20;99.90;;;;;;4857453;29;20063;-74
2021/01/31 10:19:38;;;;;;;13.32;6.30;;;1.10;99.90;;;;;;4871130;29;20493;-74
2021/01/31 10:22:15;;;;;;;15.90;7.03;;;1.20;99.90;;;;;;4868831;29;20056;-74
2021/01/31 10:24:47;;;;;;;14.82;6.40;;;1.30;99.90;;;;;;4869486;29;20092;-73
2021/01/31 10:27:28;;;;;;;15.70;6.88;;;1.30;99.90;;;;;;4869926;29;20057;-73
2021/01/31 10:30:17;;;;;;;14.57;5.72;;;1.40;99.90;;;;;;4886597;29;20059;-73
2021/01/31 10:32:43;;;;;;;11.70;5.65;;;1.50;99.90;;;;;;4887306;29;20088;-73
2021/01/31 10:35:21;;;;;;;15.43;6.13;;;1.50;99.90;;;;;;4873320;29;20061;-72
2021/01/31 10:37:49;;;;;;;15.20;6.57;;;1.50;99.90;;;;;;4885946;29;20048;-72
2021/01/31 10:40:16;;;;;;;13.70;5.70;;;1.60;99.90;;;;;;4886042;29;20104;-72
2021/01/31 10:42:43;;;;;;;14.95;6.18;;;1.70;99.90;;;;;;4872089;29;20128;-72
2021/01/31 10:45:20;;;;;;;12.50;5.63;;;1.70;99.90;;;;;;4884341;29;20053;-72
2021/01/31 10:47:47;;;;;;;14.20;6.47;;;1.90;99.90;;;;;;4880347;29;20377;-72
2021/01/31 10:50:18;;;;;;;13.85;6.20;;;2.00;99.90;;;;;;4885076;29;20049;-71
2021/01/31 10:52:45;;;;;;;12.43;6.32;;;2.10;99.90;;;;;;4887253;29;20063;-71
2021/01/31 10:55:13;;;;;;;14.70;6.30;;;2.30;99.90;;;;;;4873037;29;20060;-71
2021/01/31 10:57:39;;;;;;;14.13;6.70;;;2.30;99.90;;;;;;4887729;29;20055;-71
2021/01/31 11:00:09;;;;;;;14.35;6.15;;;2.50;99.90;;;;;;4887150;29;20424;-70
2021/01/31 11:02:36;;;;;;;14.73;7.07;;;2.70;99.90;;;;;;4888212;29;20088;-70
2021/01/31 11:05:06;;;;;;;12.80;6.70;;;2.70;99.90;;;;;;4887415;29;20052;-70
2021/01/31 11:07:34;;;;;;;;;;;2.70;99.90;;;;;;4871874;29;20465;-70
2021/01/31 11:10:00;;;;;;;14.60;6.80;;;2.70;99.90;;;;;;4873148;29;20018;-70
2021/01/31 11:12:28;;;;;;;13.15;5.88;;;2.70;99.90;;;;;;4873972;29;20060;-70
2021/01/31 11:14:54;;;;;;;13.25;6.18;;;2.80;99.90;;;;;;4874374;29;20151;-70
2021/01/31 11:17:21;;;;;;;15.98;7.30;;;3.00;99.90;;;;;;4887797;29;20059;-69
2021/01/31 11:19:47;;;;;;;16.70;6.68;;;3.30;99.90;;;;;;4889269;29;20135;-70
2021/01/31 11:22:13;;;;;;;14.63;7.28;;;3.60;99.90;;;;;;4889180;29;20057;-70
2021/01/31 11:24:40;;;;;;;13.88;6.80;;;3.70;99.90;;;;;;4888826;29;20049;-70
2021/01/31 11:27:07;;;;;;;13.90;6.90;;;3.90;99.90;;;;;;4874426;29;20067;-70
2021/01/31 11:29:34;;;;;;;14.77;7.20;;;4.30;99.90;;;;;;4889072;29;20048;-70
2021/01/31 11:32:01;;;;;;;15.38;7.57;;;4.70;99.90;;;;;;4898680;29;20708;-70
2021/01/31 11:34:27;;;;;;;17.55;7.65;;;5.00;99.90;;;;;;4897252;29;20416;-70
2021/01/31 11:36:54;;;;;;;14.80;7.18;;;5.40;99.90;;;;;;4896829;29;20080;-70
2021/01/31 11:39:21;;;;;;;16.13;6.95;;;5.70;99.90;;;;;;4898068;29;20416;-69
2021/01/31 11:41:48;;;;;;;13.20;7.30;;;6.10;99.90;;;;;;4897814;29;20056;-69
2021/01/31 11:44:18;;;;;;;15.38;6.95;;;6.40;99.90;;;;;;4892403;29;20056;-69
2021/01/31 11:46:45;;;;;;;14.70;7.18;;;6.60;99.90;;;;;;4896649;29;20056;-69
2021/01/31 11:49:11;;;;;;;13.48;8.07;;;6.70;99.90;;;;;;4891441;29;20045;-69
2021/01/31 11:51:38;;;;;;;15.05;7.95;;;7.00;99.90;;;;;;4897530;29;20489;-69
2021/01/31 11:54:04;;;;;;;12.43;7.18;;;7.20;99.90;;;;;;4882661;29;20049;-69
2021/01/31 11:56:30;;;;;;;13.55;7.60;;;7.40;99.90;;;;;;4896231;29;20127;-69
2021/01/31 11:58:57;;;;;;;16.42;7.75;;;7.70;99.90;;;;;;4889743;29;20060;-69
2021/01/31 12:01:23;;;;;;;15.20;8.20;;;7.90;99.90;;;;;;4897118;29;20062;-69
2021/01/31 12:03:49;;;;;;;14.55;7.70;;;8.00;99.90;;;;;;4897041;29;20072;-69
2021/01/31 12:06:16;;;;;;;14.68;8.05;;;8.10;99.90;;;;;;4897296;29;20049;-69
2021/01/31 12:08:42;;;;;;;12.32;6.93;;;8.30;99.90;;;;;;4876331;29;20057;-69
2021/01/31 12:11:09;;;;;;;14.07;7.82;;;8.60;99.90;;;;;;4878276;29;20531;-69
2021/01/31 12:13:36;;;;;;;13.32;7.90;;;8.70;99.90;;;;;;4878344;29;20044;-69
2021/01/31 12:16:04;;;;;;;15.40;8.27;;;8.80;99.90;;;;;;4877908;29;20041;-69
2021/01/31 12:18:30;;;;;;;13.25;7.57;;;9.00;99.90;;;;;;4877146;29;20056;-69
2021/01/31 12:20:57;;;;;;;13.35;7.72;;;9.30;99.90;;;;;;4878534;29;20147;-69
2021/01/31 12:23:24;;;;;;;12.57;7.43;;;9.40;99.90;;;;;;4884439;29;20052;-69
2021/01/31 12:25:50;;;;;;;13.52;7.38;;;9.60;99.90;;;;;;4878033;29;20060;-68
2021/01/31 12:28:17;;;;;;;13.30;7.88;;;9.60;99.90;;;;;;4877095;29;20487;-69
2021/01/31 12:30:43;;;;;;;14.05;7.97;;;9.40;99.90;;;;;;4877525;29;20090;-69
2021/01/31 12:33:13;;;;;;;13.77;8.18;;;9.10;99.90;;;;;;4877486;29;20049;-69
2021/01/31 12:35:43;;;;;;;15.52;8.73;;;8.70;99.90;;;;;;4871967;29;20076;-69
2021/01/31 12:38:10;;;;;;;13.05;7.78;;;8.40;99.90;;;;;;4869688;29;20053;-69
2021/01/31 12:40:37;;;;;;;14.20;7.75;;;8.30;99.90;;;;;;4883957;29;20116;-69
2021/01/31 12:43:04;;;;;;;12.65;7.63;;;8.30;99.90;;;;;;4877372;29;20404;-69
2021/01/31 12:45:30;;;;;;;13.88;8.07;;;8.30;99.90;;;;;;4877452;29;20067;-69
2021/01/31 12:47:56;;;;;;;14.48;8.10;;;8.40;99.90;;;;;;4876135;29;20060;-69
2021/01/31 12:50:26;;;;;;;13.25;7.45;;;8.40;99.90;;;;;;4876864;29;20528;-69
2021/01/31 12:52:54;;;;;;;12.95;7.35;;;8.40;99.90;;;;;;4876133;29;20061;-69
2021/01/31 12:55:21;;;;;;;12.93;7.72;;;8.40;99.90;;;;;;4872436;29;20528;-69
2021/01/31 12:57:48;;;;;;;13.32;7.93;;;8.20;99.90;;;;;;4874607;29;20067;-69
2021/01/31 13:00:16;;;;;;;13.70;7.65;;;8.00;99.90;;;;;;4874182;29;20045;-69
2021/01/31 13:02:44;;;;;;;12.40;7.15;;;7.70;99.90;;;;;;4873646;29;20503;-69
2021/01/31 13:05:11;;;;;;;13.73;6.93;;;7.80;99.90;;;;;;4872564;29;20057;-69
2021/01/31 13:07:38;;;;;;;11.52;6.90;;;8.10;99.90;;;;;;4870958;29;20066;-69
2021/01/31 13:10:06;;;;;;;14.57;7.90;;;8.60;99.90;;;;;;4867067;29;20466;-69
2021/01/31 13:12:32;;;;;;;11.35;7.55;;;9.00;99.90;;;;;;4875598;29;20053;-69
2021/01/31 13:14:58;;;;;;;12.27;7.03;;;9.50;99.90;;;;;;4876984;29;20053;-69
2021/01/31 13:17:24;;;;;;;11.48;6.90;;;10.10;99.90;;;;;;4873023;29;20056;-69
2021/01/31 13:19:51;;;;;;;11.90;7.07;;;10.60;99.90;;;;;;4874466;29;20466;-69
2021/01/31 13:22:18;;;;;;;12.98;7.28;;;11.00;99.90;;;;;;4873098;29;20603;-69
2021/01/31 13:24:44;;;;;;;11.40;7.20;;;11.40;99.90;;;;;;4879671;29;20087;-69
2021/01/31 13:27:11;;;;;;;11.35;7.20;;;11.60;99.90;;;;;;4876467;29;20179;-69
2021/01/31 13:29:38;;;;;;;13.20;7.93;;;11.50;99.90;;;;;;4871237;29;20135;-69
2021/01/31 13:32:06;;;;;;;12.32;6.82;;;11.20;99.90;;;;;;4877882;29;20049;-69
2021/01/31 13:34:34;;;;;;;11.77;7.30;;;10.70;99.90;;;;;;4876812;29;20532;-69
2021/01/31 13:37:00;;;;;;;13.13;7.63;;;10.20;99.90;;;;;;4874472;29;20128;-69
2021/01/31 13:39:27;;;;;;;11.27;7.13;;;9.70;99.90;;;;;;4874876;29;20064;-69
2021/01/31 13:41:54;;;;;;;11.82;6.97;;;9.30;99.90;;;;;;4866746;29;20184;-69
2021/01/31 13:44:22;;;;;;;14.98;8.27;;;8.90;99.90;;;;;;4874536;29;20084;-68
2021/01/31 13:46:48;;;;;;;14.10;7.45;;;8.60;99.90;;;;;;4863565;29;20057;-77
2021/01/31 13:49:15;;;;;;;11.18;6.35;;;8.40;99.90;;;;;;4882360;29;20052;-76
2021/01/31 13:51:41;;;;;;;10.48;6.40;;;8.20;99.90;;;;;;4869683;29;20045;-76
2021/01/31 13:54:09;;;;;;;11.70;6.70;;;8.00;99.90;;;;;;4875856;29;20055;-77
2021/01/31 13:56:36;;;;;;;11.82;6.40;;;7.90;99.90;;;;;;4877354;29;20077;-75
2021/01/31 13:59:03;;;;;;;10.98;6.45;;;7.80;99.90;;;;;;4876361;29;20132;-76
2021/01/31 14:01:29;;;;;;;10.60;6.15;;;7.60;99.90;;;;;;4867255;29;20425;-76
2021/01/31 14:03:59;;;;;;;8.70;5.47;;;7.50;99.90;;;;;;4877913;29;20058;-76
2021/01/31 14:06:26;;;;;;;11.45;6.10;;;7.40;99.90;;;;;;4875785;29;20067;-76
2021/01/31 14:08:53;;;;;;;11.30;5.88;;;7.30;99.90;;;;;;4875026;29;20520;-76
2021/01/31 14:11:21;;;;;;;9.85;5.50;;;7.20;99.90;;;;;;4876625;29;20394;-75
2021/01/31 14:13:47;;;;;;;10.55;5.28;;;7.10;99.90;;;;;;4876861;29;20067;-75
2021/01/31 14:16:13;;;;;;;11.60;5.80;;;7.10;99.90;;;;;;4876305;29;20049;-76
2021/01/31 14:18:39;;;;;;;9.63;5.57;;;7.20;99.90;;;;;;4868817;29;20417;-75
2021/01/31 14:21:06;;;;;;;9.95;5.35;;;7.20;99.90;;;;;;4869464;29;20057;-76
2021/01/31 14:23:32;;;;;;;8.48;4.93;;;7.30;99.90;;;;;;4874439;29;20053;-75
2021/01/31 14:25:59;;;;;;;9.30;4.90;;;7.40;99.90;;;;;;4868065;29;20137;-76
2021/01/31 14:28:25;;;;;;;7.90;4.00;;;7.40;99.90;;;;;;4875331;29;20057;-75
2021/01/31 14:30:53;;;;;;;7.57;4.30;;;7.30;99.90;;;;;;4874641;29;20059;-75
2021/01/31 14:33:20;;;;;;;6.63;3.67;;;7.10;99.90;;;;;;4871212;29;20069;-75
2021/01/31 14:35:46;;;;;;;7.43;4.00;;;7.00;99.90;;;;;;4873871;29;20054;-76
2021/01/31 14:38:13;;;;;;;6.55;3.63;;;6.90;99.90;;;;;;4871646;29;20140;-75
2021/01/31 14:40:46;;;;;;;7.07;3.83;;;6.80;99.90;;;;;;4875359;29;20053;-76
2021/01/31 14:43:12;;;;;;;7.65;4.25;;;6.90;99.90;;;;;;4877106;29;20067;-76
2021/01/31 14:45:41;;;;;;;6.90;4.05;;;6.90;99.90;;;;;;4876707;29;20053;-75
2021/01/31 14:48:08;;;;;;;9.20;4.43;;;6.90;99.90;;;;;;4875672;29;20123;-76
2021/01/31 14:50:36;;;;;;;6.82;3.83;;;7.10;99.90;;;;;;4873060;29;20057;-75
2021/01/31 14:53:03;;;;;;;6.50;3.50;;;7.40;99.90;;;;;;4876737;29;20124;-76
2021/01/31 14:55:33;;;;;;;6.70;3.83;;;7.70;99.90;;;;;;4870373;29;20500;-75
2021/01/31 14:58:04;;;;;;;6.85;3.90;;;7.90;99.90;;;;;;4867551;29;20155;-76
2021/01/31 15:00:33;;;;;;;5.88;3.40;;;8.00;99.90;;;;;;4879030;29;20436;-75
2021/01/31 15:03:01;;;;;;;7.82;4.15;;;8.20;99.90;;;;;;4879170;29;20045;-75
2021/01/31 15:05:27;;;;;;;6.22;3.67;;;8.20;99.90;;;;;;4871493;29;20587;-76
2021/01/31 15:07:54;;;;;;;6.78;4.25;;;8.10;99.90;;;;;;4864884;29;20080;-75
2021/01/31 15:10:21;;;;;;;7.15;3.90;;;8.00;99.90;;;;;;4872785;29;20057;-75
2021/01/31 15:12:48;;;;;;;6.85;4.03;;;8.00;99.90;;;;;;4871436;29;20141;-75
2021/01/31 15:15:23;;;;;;;7.03;3.92;;;7.80;99.90;;;;;;4874037;29;20139;-75
2021/01/31 15:17:51;;;;;;;5.75;4.22;;;7.60;99.90;;;;;;4875832;29;20120;-75
2021/01/31 15:20:21;;;;;;;7.05;3.90;;;7.40;99.90;;;;;;4872089;29;20068;-75
2021/01/31 15:22:48;;;;;;;7.45;4.18;;;7.20;99.90;;;;;;4876329;29;20420;-75
2021/01/31 15:25:14;;;;;;;7.53;4.03;;;7.00;99.90;;;;;;4872847;29;20057;-75
2021/01/31 15:27:41;;;;;;;8.00;4.68;;;6.80;99.90;;;;;;4868602;29;20059;-75
2021/01/31 15:30:11;;;;;;;10.70;5.72;;;6.60;99.90;;;;;;4865229;29;20346;-75
2021/01/31 15:32:38;;;;;;;8.52;5.18;;;6.20;99.90;;;;;;4870543;29;20410;-76
2021/01/31 15:35:05;;;;;;;9.20;5.18;;;6.00;99.90;;;;;;4872058;29;20061;-75
2021/01/31 15:37:32;;;;;;;9.93;5.35;;;5.70;99.90;;;;;;4875571;29;20049;-75
2021/01/31 15:39:59;;;;;;;9.25;4.93;;;5.50;99.90;;;;;;4869341;29;20057;-75
2021/01/31 15:42:26;;;;;;;8.65;4.80;;;5.30;99.90;;;;;;4871015;29;20053;-75
2021/01/31 15:44:52;;;;;;;9.93;5.30;;;5.10;99.90;;;;;;4874899;29;20049;-75
2021/01/31 15:47:18;;;;;;;8.70;4.85;;;5.00;99.90;;;;;;4874159;29;20061;-75
2021/01/31 15:49:45;;;;;;;9.30;4.75;;;4.80;99.90;;;;;;4871274;29;20044;-75
2021/01/31 15:52:11;;;;;;;13.45;5.05;;;4.60;99.90;;;;;;4872019;29;20048;-75
2021/01/31 15:54:38;;;;;;;9.00;5.03;;;4.40;99.90;;;;;;4873628;29;20496;-75
2021/01/31 15:57:04;;;;;;;8.95;4.93;;;4.30;99.90;;;;;;4874628;29;20044;-75